createdAt,value
2024-02-01T00:00:15.799Z,11.77
2024-02-01T00:01:20.824Z,8.38
2024-02-01T00:02:22.527Z,9.50
2024-02-01T00:03:24.423Z,9.27
2024-02-01T00:05:27.903Z,7.53
2024-02-01T00:06:29.775Z,9.07
2024-02-01T00:08:33.067Z,8.13
2024-02-01T00:10:38.868Z,8.63
2024-02-01T00:11:40.590Z,6.93
2024-02-01T00:12:42.408Z,7.80
2024-02-01T00:14:47.990Z,7.70
2024-02-01T00:15:49.795Z,9.10
2024-02-01T00:17:53.420Z,7.40
2024-02-01T00:18:55.405Z,6.65
2024-02-01T00:19:57.401Z,9.95
2024-02-01T00:20:59.221Z,7.22
2024-02-01T00:22:01.008Z,12.60
2024-02-01T00:24:07.648Z,7.50
2024-02-01T00:25:09.656Z,9.80
2024-02-01T00:26:12.394Z,9.15
2024-02-01T00:27:14.190Z,8.15
2024-02-01T00:28:16.081Z,8.32
2024-02-01T00:29:20.074Z,9.95
2024-02-01T00:32:25.838Z,12.80
2024-02-01T00:34:33.932Z,8.25
2024-02-01T00:35:37.893Z,8.80
2024-02-01T00:36:39.644Z,12.55
2024-02-01T00:37:41.445Z,10.38
2024-02-01T00:39:49.148Z,8.55
2024-02-01T00:41:55.063Z,9.20
2024-02-01T00:42:59.118Z,7.60
2024-02-01T00:44:03.365Z,7.05
2024-02-01T00:45:05.697Z,9.60
2024-02-01T00:46:10.822Z,11.20
2024-02-01T00:47:15.676Z,8.82
2024-02-01T00:48:20.075Z,11.40
2024-02-01T00:49:24.310Z,10.05
2024-02-01T00:50:26.260Z,11.15
2024-02-01T00:52:29.892Z,10.30
2024-02-01T00:53:34.045Z,12.00
2024-02-01T00:54:38.384Z,7.68
2024-02-01T00:55:45.526Z,6.82
2024-02-01T00:56:51.171Z,8.13
2024-02-01T00:57:52.891Z,7.95
2024-02-01T00:59:56.409Z,5.90
2024-02-01T01:00:58.330Z,5.97
2024-02-01T01:02:00.233Z,7.43
2024-02-01T01:03:03.846Z,5.80
2024-02-01T01:04:08.085Z,6.45
2024-02-01T01:05:12.308Z,6.13
2024-02-01T01:06:14.383Z,7.60
2024-02-01T01:07:16.209Z,6.45
2024-02-01T01:09:21.993Z,4.88
2024-02-01T01:11:27.376Z,5.40
2024-02-01T01:12:31.551Z,5.00
2024-02-01T01:13:33.475Z,7.13
2024-02-01T01:14:35.811Z,6.68
2024-02-01T01:15:40.394Z,8.02
2024-02-01T01:16:44.330Z,6.72
2024-02-01T01:17:50.718Z,7.47
2024-02-01T01:18:52.749Z,6.07
2024-02-01T01:19:56.289Z,7.53
2024-02-01T01:21:03.860Z,7.97
2024-02-01T01:22:05.794Z,4.97
2024-02-01T01:23:10.307Z,7.63
2024-02-01T01:24:12.110Z,6.22
2024-02-01T01:25:14.905Z,9.68
2024-02-01T01:26:28.086Z,9.98
2024-02-01T01:27:30.283Z,11.13
2024-02-01T01:28:32.173Z,11.40
2024-02-01T01:29:34.097Z,10.02
2024-02-01T01:30:35.895Z,9.63
2024-02-01T01:31:37.638Z,10.27
2024-02-01T01:33:44.681Z,9.52
2024-02-01T01:34:46.532Z,10.48
2024-02-01T01:35:53.273Z,10.43
2024-02-01T01:36:58.463Z,12.80
2024-02-01T01:38:03.256Z,9.18
2024-02-01T01:39:07.419Z,11.20
2024-02-01T01:40:09.667Z,8.27
2024-02-01T01:41:13.820Z,12.07
2024-02-01T01:42:15.680Z,11.50
2024-02-01T01:43:17.358Z,8.30
2024-02-01T01:45:20.924Z,9.23
2024-02-01T01:46:24.994Z,9.15
2024-02-01T01:47:30.855Z,9.23
2024-02-01T01:48:39.948Z,9.00
2024-02-01T01:49:42.583Z,10.40
2024-02-01T01:50:44.485Z,7.15
2024-02-01T01:51:49.234Z,8.68
2024-02-01T01:52:54.223Z,9.73
2024-02-01T01:53:57.629Z,8.40
2024-02-01T01:55:00.366Z,12.85
2024-02-01T01:56:02.369Z,8.02
2024-02-01T01:57:06.082Z,7.25
2024-02-01T01:58:07.816Z,11.32
2024-02-01T02:12:33.502Z,9.63
2024-02-01T02:13:35.280Z,9.00
2024-02-01T02:15:38.770Z,8.05
2024-02-01T02:16:40.641Z,9.98
2024-02-01T02:17:42.444Z,9.05
2024-02-01T02:18:46.709Z,11.70
2024-02-01T02:19:48.947Z,11.38
2024-02-01T02:20:52.362Z,9.40
2024-02-01T02:21:54.684Z,10.57
2024-02-01T02:22:59.337Z,12.23
2024-02-01T02:24:01.522Z,10.68
2024-02-01T02:25:06.297Z,11.75
2024-02-01T02:26:09.336Z,11.52
2024-02-01T02:27:11.093Z,12.65
2024-02-01T02:29:17.018Z,12.65
2024-02-01T02:30:19.217Z,11.77
2024-02-01T02:31:20.931Z,10.45
2024-02-01T02:33:26.315Z,10.30
2024-02-01T02:34:28.262Z,13.57
2024-02-01T02:35:32.368Z,10.63
2024-02-01T02:36:34.099Z,13.85
2024-02-01T02:37:44.793Z,14.30
2024-02-01T02:38:49.167Z,11.10
2024-02-01T02:39:50.882Z,11.25
2024-02-01T02:41:54.270Z,11.27
2024-02-01T02:43:58.286Z,9.65
2024-02-01T02:45:00.063Z,10.52
2024-02-01T02:46:04.938Z,8.93
2024-02-01T02:47:06.846Z,11.60
2024-02-01T02:48:10.665Z,12.63
2024-02-01T02:49:12.809Z,8.80
2024-02-01T02:50:15.028Z,11.32
2024-02-01T02:51:19.747Z,9.20
2024-02-01T02:52:21.469Z,10.55
2024-02-01T02:53:25.423Z,8.57
2024-02-01T02:54:32.090Z,9.40
2024-02-01T02:55:34.241Z,9.25
2024-02-01T02:56:35.958Z,8.18
2024-02-01T02:57:37.985Z,9.38
2024-02-01T02:58:39.685Z,8.23
2024-02-01T03:00:44.724Z,10.60
2024-02-01T03:01:46.366Z,11.88
2024-02-01T03:03:53.629Z,10.02
2024-02-01T03:05:57.084Z,8.07
2024-02-01T03:06:58.902Z,8.50
2024-02-01T03:08:06.060Z,10.32
2024-02-01T03:09:11.124Z,11.60
2024-02-01T03:10:16.992Z,9.45
2024-02-01T03:11:18.742Z,7.70
2024-02-01T03:13:22.895Z,8.55
2024-02-01T03:15:30.341Z,10.77
2024-02-01T03:16:32.308Z,8.13
2024-02-01T03:18:37.549Z,8.82
2024-02-01T03:19:44.033Z,8.43
2024-02-01T03:20:47.002Z,6.97
2024-02-01T03:21:56.891Z,6.75
2024-02-01T03:23:01.143Z,7.35
2024-02-01T03:25:08.164Z,8.68
2024-02-01T03:26:11.349Z,6.80
2024-02-01T03:27:14.517Z,8.80
2024-02-01T03:28:16.313Z,10.50
2024-02-01T03:30:20.237Z,8.38
2024-02-01T03:31:22.273Z,8.43
2024-02-01T03:32:31.044Z,7.95
2024-02-01T03:33:40.597Z,7.82
2024-02-01T03:34:43.612Z,8.95
2024-02-01T03:35:46.294Z,8.32
2024-02-01T03:36:53.748Z,6.93
2024-02-01T03:37:57.953Z,7.22
2024-02-01T03:39:00.578Z,10.32
2024-02-01T03:40:02.517Z,6.50
2024-02-01T03:41:05.908Z,8.82
2024-02-01T03:42:08.358Z,7.10
2024-02-01T03:43:12.424Z,6.93
2024-02-01T03:44:16.149Z,8.23
2024-02-01T03:45:18.703Z,10.98
2024-02-01T03:46:20.762Z,7.47
2024-02-01T03:47:22.616Z,11.05
2024-02-01T03:48:24.534Z,9.30
2024-02-01T03:49:28.956Z,7.93
2024-02-01T03:50:39.376Z,11.68
2024-02-01T03:51:41.669Z,8.07
2024-02-01T03:52:46.448Z,8.77
2024-02-01T03:53:48.238Z,7.82
2024-02-01T03:54:55.144Z,7.63
2024-02-01T03:55:57.122Z,8.20
2024-02-01T03:56:59.704Z,7.82
2024-02-01T03:58:03.879Z,9.98
2024-02-01T03:59:09.905Z,7.18
2024-02-01T04:00:26.141Z,9.40
2024-02-01T04:01:28.962Z,9.75
2024-02-01T04:02:30.652Z,8.75
2024-02-01T04:04:34.612Z,10.55
2024-02-01T04:05:39.174Z,12.10
2024-02-01T04:06:41.132Z,11.23
2024-02-01T04:07:42.964Z,9.85
2024-02-01T04:09:49.442Z,6.85
2024-02-01T04:10:51.347Z,9.43
2024-02-01T04:12:54.625Z,8.50
2024-02-01T04:15:03.728Z,9.48
2024-02-01T04:16:05.981Z,10.05
2024-02-01T04:17:07.695Z,8.50
2024-02-01T04:18:09.659Z,7.40
2024-02-01T04:19:14.199Z,8.57
2024-02-01T04:20:16.164Z,10.65
2024-02-01T04:22:22.290Z,8.63
2024-02-01T04:23:30.491Z,9.15
2024-02-01T04:24:34.797Z,7.60
2024-02-01T04:25:37.258Z,9.07
2024-02-01T04:26:41.462Z,8.18
2024-02-01T04:27:43.128Z,8.20
2024-02-01T04:29:48.753Z,10.45
2024-02-01T04:30:52.570Z,8.85
2024-02-01T04:31:54.961Z,6.82
2024-02-01T04:32:57.246Z,8.20
2024-02-01T04:33:59.524Z,8.38
2024-02-01T04:35:05.999Z,7.80
2024-02-01T04:36:11.214Z,7.15
2024-02-01T04:37:13.534Z,8.10
2024-02-01T04:38:17.536Z,6.93
2024-02-01T04:39:19.407Z,6.97
2024-02-01T04:40:23.060Z,7.70
2024-02-01T04:41:26.097Z,9.95
2024-02-01T04:42:31.622Z,8.02
2024-02-01T04:43:37.517Z,8.82
2024-02-01T04:44:39.202Z,8.23
2024-02-01T04:46:43.044Z,6.55
2024-02-01T04:47:47.270Z,10.95
2024-02-01T04:48:49.126Z,7.10
2024-02-01T04:49:53.871Z,6.47
2024-02-01T04:50:55.770Z,6.30
2024-02-01T04:51:58.196Z,7.28
2024-02-01T04:52:59.870Z,6.72
2024-02-01T04:54:01.995Z,8.93
2024-02-01T04:55:06.900Z,8.80
2024-02-01T04:56:09.367Z,11.77
2024-02-01T04:57:15.149Z,7.85
2024-02-01T04:58:21.502Z,12.23
2024-02-01T04:59:25.417Z,9.25
2024-02-01T05:02:15.745Z,8.60
2024-02-01T05:03:20.791Z,6.45
2024-02-01T05:04:22.672Z,8.15
2024-02-01T05:06:27.293Z,10.23
2024-02-01T05:07:29.310Z,12.45
2024-02-01T05:08:31.839Z,7.95
2024-02-01T05:09:43.156Z,6.47
2024-02-01T05:10:47.933Z,9.43
2024-02-01T05:11:52.209Z,10.10
2024-02-01T05:12:56.814Z,10.57
2024-02-01T05:13:58.484Z,8.75
2024-02-01T05:16:03.468Z,10.85
2024-02-01T05:17:08.270Z,9.00
2024-02-01T05:18:10.363Z,7.57
2024-02-01T05:19:12.753Z,8.27
2024-02-01T05:20:14.750Z,9.70
2024-02-01T05:21:16.586Z,8.30
2024-02-01T05:22:20.514Z,7.38
2024-02-01T05:23:22.381Z,6.65
2024-02-01T05:24:25.126Z,6.80
2024-02-01T05:25:27.508Z,6.88
2024-02-01T05:26:29.183Z,9.82
2024-02-01T05:27:31.161Z,7.57
2024-02-01T05:28:34.924Z,7.07
2024-02-01T05:29:37.424Z,7.85
2024-02-01T05:30:43.818Z,9.75
2024-02-01T05:31:50.336Z,10.98
2024-02-01T05:32:54.084Z,7.70
2024-02-01T05:33:56.840Z,11.23
2024-02-01T05:34:59.210Z,7.85
2024-02-01T05:36:07.726Z,8.80
2024-02-01T05:37:09.886Z,8.00
2024-02-01T05:38:14.143Z,9.68
2024-02-01T05:40:29.150Z,25.38
2024-02-01T05:41:31.068Z,27.30
2024-02-01T05:43:34.723Z,13.50
2024-02-01T05:44:36.791Z,15.05
2024-02-01T05:45:38.586Z,11.07
2024-02-01T05:46:45.706Z,19.08
2024-02-01T05:47:48.137Z,10.10
2024-02-01T05:48:52.622Z,8.15
2024-02-01T05:49:56.560Z,8.40
2024-02-01T05:51:00.776Z,8.05
2024-02-01T05:52:05.070Z,8.30
2024-02-01T05:53:10.628Z,10.32
2024-02-01T05:54:12.530Z,8.57
2024-02-01T05:55:14.941Z,10.70
2024-02-01T05:56:16.690Z,8.23
2024-02-01T05:58:20.898Z,10.85
2024-02-01T05:59:22.687Z,5.80
2024-02-01T06:00:25.525Z,8.48
2024-02-01T06:01:27.699Z,8.75
2024-02-01T06:02:29.458Z,7.80
2024-02-01T06:03:31.294Z,11.05
2024-02-01T06:04:33.212Z,8.98
2024-02-01T06:06:38.847Z,9.32
2024-02-01T06:07:40.639Z,9.00
2024-02-01T06:09:44.193Z,8.93
2024-02-01T06:10:46.888Z,12.32
2024-02-01T06:11:52.361Z,8.25
2024-02-01T06:12:54.873Z,8.38
2024-02-01T06:13:56.592Z,9.45
2024-02-01T06:16:00.665Z,11.18
2024-02-01T06:17:06.181Z,10.73
2024-02-01T06:18:08.108Z,13.05
2024-02-01T06:19:10.159Z,10.50
2024-02-01T06:20:15.008Z,9.05
2024-02-01T06:21:20.683Z,11.60
2024-02-01T06:22:22.533Z,12.25
2024-02-01T06:24:25.831Z,10.75
2024-02-01T06:25:27.639Z,9.85
2024-02-01T06:27:31.626Z,10.65
2024-02-01T06:28:33.435Z,9.98
2024-02-01T06:30:40.497Z,15.20
2024-02-01T06:32:46.610Z,15.45
2024-02-01T06:33:51.926Z,14.80
2024-02-01T06:35:06.883Z,13.57
2024-02-01T06:36:15.018Z,17.27
2024-02-01T06:37:18.497Z,12.48
2024-02-01T06:38:26.837Z,14.05
2024-02-01T06:39:33.655Z,8.13
2024-02-01T06:40:39.328Z,8.43
2024-02-01T06:41:50.692Z,9.38
2024-02-01T06:43:18.946Z,9.90
2024-02-01T06:44:25.869Z,10.15
2024-02-01T06:45:31.155Z,9.07
2024-02-01T06:46:51.143Z,5.10
2024-02-01T06:48:06.123Z,10.77
2024-02-01T06:49:20.973Z,8.65
2024-02-01T06:50:45.474Z,11.15
2024-02-01T06:51:47.825Z,8.27
2024-02-01T06:52:52.609Z,10.52
2024-02-01T06:54:07.469Z,12.95
2024-02-01T06:55:12.276Z,9.15
2024-02-01T06:56:29.770Z,8.95
2024-02-01T06:58:10.703Z,8.80
2024-02-01T06:59:31.168Z,9.35
2024-02-01T07:00:42.245Z,9.23
2024-02-01T07:02:02.777Z,8.85
2024-02-01T07:03:27.139Z,13.13
2024-02-01T07:04:43.010Z,10.80
2024-02-01T07:05:51.004Z,9.20
2024-02-01T07:07:10.070Z,9.88
2024-02-01T07:08:27.279Z,9.57
2024-02-01T07:09:38.004Z,11.05
2024-02-01T07:10:44.859Z,12.32
2024-02-01T07:12:08.275Z,9.23
2024-02-01T07:13:23.690Z,7.93
2024-02-01T07:14:38.129Z,7.47
2024-02-01T07:15:40.242Z,10.27
2024-02-01T07:18:04.880Z,13.27
2024-02-01T07:19:23.066Z,23.35
2024-02-01T07:20:36.696Z,18.42
2024-02-01T07:21:57.770Z,18.98
2024-02-01T07:23:04.365Z,13.05
2024-02-01T07:24:18.965Z,9.15
2024-02-01T07:25:48.420Z,10.63
2024-02-01T07:27:12.569Z,16.02
2024-02-01T07:28:37.452Z,11.32
2024-02-01T07:29:58.242Z,9.50
2024-02-01T07:31:18.597Z,11.60
2024-02-01T07:32:38.996Z,9.18
2024-02-01T07:33:59.505Z,10.57
2024-02-01T07:35:19.768Z,19.45
2024-02-01T07:36:40.198Z,14.07
2024-02-01T07:38:00.640Z,13.95
2024-02-01T07:39:20.940Z,10.55
2024-02-01T07:40:43.740Z,11.77
2024-02-01T07:42:03.828Z,11.95
2024-02-01T07:43:26.466Z,10.43
2024-02-01T07:44:48.541Z,19.15
2024-02-01T07:46:22.679Z,21.23
2024-02-01T07:47:43.249Z,14.63
2024-02-01T07:49:03.770Z,14.68
2024-02-01T07:50:24.691Z,12.90
2024-02-01T07:51:47.959Z,12.15
2024-02-01T07:53:09.506Z,12.82
2024-02-01T07:54:29.787Z,15.25
2024-02-01T07:55:49.969Z,10.20
2024-02-01T07:57:10.334Z,14.38
2024-02-01T07:58:16.061Z,11.43
2024-02-01T07:59:19.913Z,8.23
2024-02-01T08:02:35.618Z,16.17
2024-02-01T08:03:56.947Z,14.63
2024-02-01T08:05:17.331Z,13.07
2024-02-01T08:06:37.835Z,12.25
2024-02-01T08:07:45.451Z,10.82
2024-02-01T08:08:51.718Z,12.68
2024-02-01T08:09:56.219Z,18.33
2024-02-01T08:11:00.066Z,17.63
2024-02-01T08:13:10.550Z,12.07
2024-02-01T08:14:18.379Z,9.02
2024-02-01T08:15:20.537Z,11.98
2024-02-01T08:16:22.703Z,11.32
2024-02-01T08:17:24.851Z,15.00
2024-02-01T08:18:27.669Z,14.77
2024-02-01T08:19:39.625Z,16.00
2024-02-01T08:20:43.115Z,19.27
2024-02-01T08:21:47.816Z,13.30
2024-02-01T08:22:50.422Z,22.83
2024-02-01T08:23:56.186Z,18.65
2024-02-01T08:25:00.115Z,22.80
2024-02-01T08:26:06.866Z,20.70
2024-02-01T08:27:15.423Z,18.63
2024-02-01T08:28:18.771Z,25.05
2024-02-01T08:29:25.846Z,16.35
2024-02-01T08:30:31.164Z,14.93
2024-02-01T08:31:37.971Z,15.95
2024-02-01T08:32:43.370Z,10.05
2024-02-01T08:33:46.133Z,13.57
2024-02-01T08:34:50.821Z,14.35
2024-02-01T08:35:52.727Z,9.43
2024-02-01T08:36:55.341Z,10.00
2024-02-01T08:37:57.032Z,9.48
2024-02-01T08:39:01.059Z,12.38
2024-02-01T08:40:03.698Z,10.55
2024-02-01T08:41:08.176Z,11.15
2024-02-01T08:42:10.180Z,14.35
2024-02-01T08:43:14.171Z,7.80
2024-02-01T08:44:19.268Z,10.90
2024-02-01T08:45:21.706Z,11.07
2024-02-01T08:46:23.828Z,13.32
2024-02-01T08:47:25.595Z,11.30
2024-02-01T08:49:37.466Z,13.43
2024-02-01T08:50:44.286Z,11.30
2024-02-01T08:51:46.905Z,9.85
2024-02-01T08:52:48.694Z,14.32
2024-02-01T08:54:54.706Z,14.73
2024-02-01T08:55:57.411Z,11.15
2024-02-01T08:56:59.119Z,12.88
2024-02-01T08:59:22.519Z,16.17
2024-02-01T09:00:27.938Z,12.93
2024-02-01T09:01:34.423Z,11.15
2024-02-01T09:02:39.319Z,13.10
2024-02-01T09:03:41.018Z,15.35
2024-02-01T09:05:51.333Z,12.70
2024-02-01T09:06:56.687Z,13.27
2024-02-01T09:07:59.875Z,14.25
2024-02-01T09:09:01.589Z,10.32
2024-02-01T09:11:20.533Z,14.13
2024-02-01T09:12:24.698Z,13.52
2024-02-01T09:13:29.537Z,15.70
2024-02-01T09:14:31.393Z,14.52
2024-02-01T09:16:36.008Z,11.32
2024-02-01T09:18:41.740Z,9.57
2024-02-01T09:19:44.589Z,12.18
2024-02-01T09:20:47.347Z,15.25
2024-02-01T09:21:49.100Z,12.45
2024-02-01T09:23:53.265Z,10.32
2024-02-01T09:24:56.090Z,15.10
2024-02-01T09:25:57.841Z,11.57
2024-02-01T09:27:03.610Z,9.75
2024-02-01T09:28:16.019Z,10.02
2024-02-01T09:29:19.927Z,10.45
2024-02-01T09:30:24.372Z,15.15
2024-02-01T09:31:28.538Z,17.08
2024-02-01T09:33:36.753Z,12.60
2024-02-01T09:34:38.626Z,11.13
2024-02-01T09:36:42.136Z,9.10
2024-02-01T09:38:48.296Z,14.55
2024-02-01T09:39:50.248Z,12.60
2024-02-01T09:41:55.888Z,13.88
2024-02-01T09:42:57.680Z,15.50
2024-02-01T09:45:05.751Z,10.63
2024-02-01T09:46:09.442Z,14.55
2024-02-01T09:47:13.353Z,13.02
2024-02-01T09:48:18.742Z,10.10
2024-02-01T09:49:28.277Z,12.80
2024-02-01T09:50:34.122Z,8.98
2024-02-01T09:52:41.137Z,13.68
2024-02-01T09:53:44.948Z,15.30
2024-02-01T09:54:47.840Z,12.75
2024-02-01T09:55:51.425Z,14.15
2024-02-01T09:56:57.896Z,16.25
2024-02-01T09:57:59.683Z,21.10
2024-02-01T10:00:06.475Z,11.10
2024-02-01T10:01:11.531Z,13.98
2024-02-01T10:02:16.177Z,16.67
2024-02-01T10:03:24.676Z,13.60
2024-02-01T10:04:26.889Z,13.70
2024-02-01T10:06:31.489Z,8.95
2024-02-01T10:07:36.849Z,9.55
2024-02-01T10:08:41.402Z,12.52
2024-02-01T10:09:52.703Z,9.95
2024-02-01T10:10:54.598Z,8.40
2024-02-01T10:11:57.215Z,9.60
2024-02-01T10:13:00.225Z,12.20
2024-02-01T10:14:02.026Z,10.60
2024-02-01T10:16:17.709Z,9.52
2024-02-01T10:17:19.518Z,8.80
2024-02-01T10:18:23.157Z,10.45
2024-02-01T10:19:27.191Z,9.02
2024-02-01T10:20:39.857Z,11.30
2024-02-01T10:21:56.321Z,13.85
2024-02-01T10:23:11.243Z,11.65
2024-02-01T10:24:15.254Z,15.45
2024-02-01T10:25:16.934Z,10.13
2024-02-01T10:26:25.111Z,10.80
2024-02-01T10:27:29.582Z,8.98
2024-02-01T10:28:37.746Z,11.57
2024-02-01T10:29:43.336Z,10.65
2024-02-01T10:30:50.314Z,12.40
2024-02-01T10:31:56.253Z,11.18
2024-02-01T10:33:03.330Z,9.68
2024-02-01T10:34:11.799Z,13.68
2024-02-01T10:35:18.028Z,9.23
2024-02-01T10:36:25.149Z,10.25
2024-02-01T10:37:30.479Z,11.02
2024-02-01T10:38:35.957Z,12.45
2024-02-01T10:39:41.094Z,11.75
2024-02-01T10:40:51.954Z,9.05
2024-02-01T10:41:57.766Z,11.88
2024-02-01T10:43:01.124Z,9.65
2024-02-01T10:44:04.800Z,11.52
2024-02-01T10:45:11.812Z,11.48
2024-02-01T10:46:30.924Z,9.93
2024-02-01T10:47:42.407Z,10.20
2024-02-01T10:48:53.997Z,9.73
2024-02-01T10:49:58.084Z,7.35
2024-02-01T10:51:10.980Z,10.00
2024-02-01T10:52:13.723Z,9.73
2024-02-01T10:53:20.700Z,9.55
2024-02-01T10:54:23.973Z,10.35
2024-02-01T10:55:27.814Z,10.68
2024-02-01T10:56:32.332Z,11.45
2024-02-01T10:57:35.920Z,10.30
2024-02-01T10:58:37.637Z,11.02
2024-02-01T11:02:21.502Z,8.37
2024-02-01T11:03:28.713Z,11.98
2024-02-01T11:04:36.466Z,15.13
2024-02-01T11:05:40.858Z,10.95
2024-02-01T11:06:47.544Z,11.98
2024-02-01T11:07:52.051Z,11.75
2024-02-01T11:08:58.312Z,9.18
2024-02-01T11:10:01.292Z,14.35
2024-02-01T11:11:17.230Z,13.68
2024-02-01T11:12:26.845Z,11.57
2024-02-01T11:13:29.443Z,13.15
2024-02-01T11:14:33.271Z,10.98
2024-02-01T11:15:35.119Z,13.75
2024-02-01T11:16:41.714Z,9.38
2024-02-01T11:17:44.651Z,11.85
2024-02-01T11:18:51.798Z,11.85
2024-02-01T11:19:54.159Z,11.02
2024-02-01T11:21:04.007Z,12.15
2024-02-01T11:22:06.624Z,9.63
2024-02-01T11:23:08.795Z,10.18
2024-02-01T11:25:18.686Z,14.57
2024-02-01T11:26:21.367Z,14.63
2024-02-01T11:27:26.296Z,14.50
2024-02-01T11:28:30.396Z,11.27
2024-02-01T11:29:36.525Z,14.80
2024-02-01T11:30:55.788Z,13.30
2024-02-01T11:32:07.312Z,12.73
2024-02-01T11:33:19.446Z,11.05
2024-02-01T11:36:28.460Z,11.35
2024-02-01T11:38:32.280Z,11.82
2024-02-01T11:40:44.248Z,13.38
2024-02-01T11:41:48.983Z,12.40
2024-02-01T11:42:53.325Z,15.45
2024-02-01T11:43:55.830Z,10.30
2024-02-01T11:45:03.281Z,12.70
2024-02-01T11:46:07.367Z,10.23
2024-02-01T11:47:10.400Z,11.50
2024-02-01T11:48:16.788Z,12.38
2024-02-01T11:49:27.878Z,11.10
2024-02-01T11:50:31.928Z,12.43
2024-02-01T11:51:41.885Z,9.38
2024-02-01T11:53:01.976Z,12.65
2024-02-01T11:54:04.115Z,12.68
2024-02-01T11:55:09.147Z,13.48
2024-02-01T11:56:10.946Z,13.43
2024-02-01T11:58:32.648Z,9.90
2024-02-01T11:59:34.515Z,13.40
2024-02-01T12:02:01.224Z,14.20
2024-02-01T12:03:05.521Z,16.60
2024-02-01T12:04:10.120Z,17.02
2024-02-01T12:05:11.895Z,18.67
2024-02-01T12:06:15.350Z,16.23
2024-02-01T12:07:19.249Z,15.88
2024-02-01T12:08:21.959Z,13.23
2024-02-01T12:09:26.639Z,18.92
2024-02-01T12:10:32.175Z,16.77
2024-02-01T12:11:35.669Z,12.63
2024-02-01T12:12:38.279Z,16.33
2024-02-01T12:13:48.331Z,11.82
2024-02-01T12:14:51.726Z,18.73
2024-02-01T12:15:53.873Z,18.15
2024-02-01T12:16:56.392Z,19.58
2024-02-01T12:18:02.021Z,12.10
2024-02-01T12:19:05.187Z,16.27
2024-02-01T12:20:19.183Z,18.38
2024-02-01T12:21:29.559Z,13.82
2024-02-01T12:22:33.509Z,15.43
2024-02-01T12:23:35.935Z,12.93
2024-02-01T12:24:38.024Z,11.27
2024-02-01T12:25:40.301Z,14.32
2024-02-01T12:26:42.053Z,12.82
2024-02-01T12:27:47.472Z,11.63
2024-02-01T12:28:49.235Z,12.25
2024-02-01T12:30:52.737Z,14.38
2024-02-01T12:32:56.344Z,10.18
2024-02-01T12:33:58.313Z,11.95
2024-02-01T12:35:00.260Z,13.27
2024-02-01T12:36:02.259Z,15.10
2024-02-01T12:37:06.927Z,13.43
2024-02-01T12:38:10.087Z,12.43
2024-02-01T12:39:14.710Z,14.93
2024-02-01T12:40:19.391Z,15.50
2024-02-01T12:41:21.341Z,17.92
2024-02-01T12:42:23.077Z,14.98
2024-02-01T12:43:25.460Z,16.25
2024-02-01T12:44:27.358Z,17.60
2024-02-01T12:46:30.811Z,14.48
2024-02-01T12:48:43.591Z,15.40
2024-02-01T12:49:47.633Z,15.73
2024-02-01T12:50:50.209Z,17.75
2024-02-01T12:51:54.008Z,16.00
2024-02-01T12:52:55.871Z,17.55
2024-02-01T12:56:04.619Z,16.67
2024-02-01T12:57:06.570Z,17.83
2024-02-01T12:58:08.368Z,39.08
2024-02-01T12:59:11.796Z,45.53
2024-02-01T13:00:14.481Z,39.58
2024-02-01T13:01:16.825Z,37.85
2024-02-01T13:02:18.700Z,35.47
2024-02-01T13:04:22.749Z,50.08
2024-02-01T13:05:26.404Z,45.63
2024-02-01T13:06:28.849Z,37.33
2024-02-01T13:07:30.992Z,30.17
2024-02-01T13:08:40.459Z,20.77
2024-02-01T13:09:42.643Z,25.45
2024-02-01T13:10:46.936Z,23.50
2024-02-01T13:11:48.916Z,21.38
2024-02-01T13:12:57.592Z,20.23
2024-02-01T13:14:00.171Z,16.92
2024-02-01T13:15:02.972Z,15.88
2024-02-01T13:16:06.069Z,14.50
2024-02-01T13:17:12.672Z,12.52
2024-02-01T13:18:15.517Z,14.63
2024-02-01T13:19:17.500Z,10.95
2024-02-01T13:20:22.950Z,10.82
2024-02-01T13:21:25.807Z,17.58
2024-02-01T13:22:30.206Z,13.32
2024-02-01T13:23:31.872Z,30.70
2024-02-01T13:25:35.257Z,23.27
2024-02-01T13:27:40.514Z,20.30
2024-02-01T13:28:45.050Z,22.63
2024-02-01T13:29:47.669Z,22.90
2024-02-01T13:30:49.588Z,22.25
2024-02-01T13:31:51.560Z,26.77
2024-02-01T13:32:54.055Z,24.45
2024-02-01T13:34:00.680Z,21.98
2024-02-01T13:35:02.795Z,20.42
2024-02-01T13:36:05.680Z,16.52
2024-02-01T13:37:11.846Z,15.25
2024-02-01T13:38:16.098Z,18.10
2024-02-01T13:39:17.873Z,17.58
2024-02-01T13:40:19.645Z,19.50
2024-02-01T13:41:22.514Z,22.27
2024-02-01T13:42:24.230Z,22.30
2024-02-01T13:44:27.681Z,32.75
2024-02-01T13:46:31.486Z,195.88
2024-02-01T13:47:33.360Z,160.25
2024-02-01T13:48:35.291Z,119.80
2024-02-01T13:49:37.965Z,35.67
2024-02-01T13:50:40.236Z,17.23
2024-02-01T13:51:45.724Z,18.45
2024-02-01T13:52:48.036Z,21.35
2024-02-01T13:53:50.038Z,17.27
2024-02-01T13:54:54.271Z,13.02
2024-02-01T13:55:56.060Z,19.75
2024-02-01T13:57:59.567Z,13.35
2024-02-01T13:59:01.343Z,19.33
2024-02-01T14:12:36.316Z,16.23
2024-02-01T14:13:38.156Z,21.75
2024-02-01T14:15:44.112Z,16.90
2024-02-01T14:16:46.076Z,18.38
2024-02-01T14:17:50.257Z,15.43
2024-02-01T14:18:52.165Z,19.00
2024-02-01T14:19:57.542Z,14.93
2024-02-01T14:20:59.453Z,14.90
2024-02-01T14:22:01.285Z,17.77
2024-02-01T14:23:03.121Z,19.25
2024-02-01T14:25:06.972Z,16.77
2024-02-01T14:26:09.710Z,19.92
2024-02-01T14:27:11.391Z,16.58
2024-02-01T14:29:18.820Z,20.35
2024-02-01T14:30:20.761Z,16.00
2024-02-01T14:31:25.719Z,19.23
2024-02-01T14:32:27.658Z,18.80
2024-02-01T14:33:31.982Z,17.75
2024-02-01T14:34:34.557Z,18.33
2024-02-01T14:35:38.773Z,20.73
2024-02-01T14:36:40.538Z,17.38
2024-02-01T14:38:47.210Z,18.42
2024-02-01T14:39:48.965Z,16.85
2024-02-01T14:41:56.170Z,19.10
2024-02-01T14:42:59.915Z,15.13
2024-02-01T14:44:01.997Z,14.38
2024-02-01T14:45:04.912Z,17.95
2024-02-01T14:46:06.783Z,14.52
2024-02-01T14:47:08.833Z,17.27
2024-02-01T14:48:10.747Z,17.10
2024-02-01T14:49:13.401Z,17.50
2024-02-01T14:50:16.699Z,17.25
2024-02-01T14:51:18.549Z,14.82
2024-02-01T14:53:21.993Z,15.30
2024-02-01T14:54:24.728Z,13.52
2024-02-01T14:55:26.530Z,15.95
2024-02-01T14:57:29.953Z,14.40
2024-02-01T14:58:34.706Z,15.85
2024-02-01T14:59:36.500Z,17.13
2024-02-01T15:00:38.386Z,19.50
2024-02-01T15:01:42.404Z,14.70
2024-02-01T15:02:44.617Z,23.00
2024-02-01T15:03:46.616Z,16.92
2024-02-01T15:04:50.790Z,19.20
2024-02-01T15:05:52.755Z,15.20
2024-02-01T15:06:57.018Z,18.85
2024-02-01T15:08:00.086Z,13.75
2024-02-01T15:09:04.462Z,20.52
2024-02-01T15:10:15.543Z,15.65
2024-02-01T15:11:18.615Z,17.57
2024-02-01T15:12:20.564Z,17.25
2024-02-01T15:13:24.877Z,18.85
2024-02-01T15:14:29.237Z,17.50
2024-02-01T15:15:35.515Z,16.80
2024-02-01T15:16:37.537Z,15.15
2024-02-01T15:17:40.495Z,14.90
2024-02-01T15:18:42.760Z,12.20
2024-02-01T15:19:47.829Z,18.00
2024-02-01T15:20:55.994Z,15.23
2024-02-01T15:22:00.916Z,12.65
2024-02-01T15:23:05.655Z,12.18
2024-02-01T15:24:14.135Z,17.80
2024-02-01T15:25:18.300Z,13.73
2024-02-01T15:26:20.114Z,13.32
2024-02-01T15:28:24.956Z,13.18
2024-02-01T15:29:29.084Z,12.38
2024-02-01T15:30:33.178Z,13.32
2024-02-01T15:31:35.026Z,13.20
2024-02-01T15:32:40.323Z,15.73
2024-02-01T15:33:43.363Z,11.75
2024-02-01T15:34:51.824Z,15.05
2024-02-01T15:35:54.450Z,13.68
2024-02-01T15:36:56.317Z,16.80
2024-02-01T15:37:58.078Z,23.80
2024-02-01T15:39:01.077Z,22.25
2024-02-01T15:40:06.768Z,20.85
2024-02-01T15:41:08.505Z,14.10
2024-02-01T15:42:10.893Z,11.93
2024-02-01T15:43:15.934Z,12.20
2024-02-01T15:44:17.655Z,12.80
2024-02-01T15:46:21.027Z,14.15
2024-02-01T15:48:44.624Z,15.88
2024-02-01T15:49:51.426Z,13.05
2024-02-01T15:50:53.935Z,11.60
2024-02-01T15:51:56.294Z,12.75
2024-02-01T15:52:59.085Z,13.80
2024-02-01T15:54:00.857Z,14.70
2024-02-01T15:55:03.368Z,11.32
2024-02-01T15:56:08.431Z,10.38
2024-02-01T15:57:12.784Z,14.93
2024-02-01T15:58:14.780Z,13.27
2024-02-01T15:59:16.597Z,10.43
2024-02-01T16:00:19.325Z,11.27
2024-02-01T16:01:21.315Z,10.95
2024-02-01T16:02:27.653Z,11.43
2024-02-01T16:03:32.138Z,15.27
2024-02-01T16:04:35.961Z,13.82
2024-02-01T16:05:55.792Z,12.93
2024-02-01T16:06:57.924Z,14.57
2024-02-01T16:07:59.692Z,13.50
2024-02-01T16:10:09.412Z,15.82
2024-02-01T16:11:14.942Z,17.25
2024-02-01T16:12:21.249Z,13.75
2024-02-01T16:13:23.617Z,14.63
2024-02-01T16:14:28.810Z,15.48
2024-02-01T16:15:37.116Z,15.55
2024-02-01T16:16:43.348Z,16.95
2024-02-01T16:17:53.103Z,15.45
2024-02-01T16:18:57.758Z,16.90
2024-02-01T16:20:00.483Z,17.42
2024-02-01T16:21:05.885Z,15.07
2024-02-01T16:22:11.267Z,14.90
2024-02-01T16:23:15.599Z,12.23